sensor_id;sensor_type;location;lat;lon;timestamp;pressure;altitude;pressure_sealevel;temperature;humidity
76973;BME280;65907;53.640;10.050;2023-06-14T00:01:23;101057.69;;;27.20;29.19
76973;BME280;65907;53.640;10.050;2023-06-14T00:03:48;101058.81;;;27.10;29.27
76973;BME280;65907;53.640;10.050;2023-06-14T00:06:15;101060.16;;;27.05;29.46
76973;BME280;65907;53.640;10.050;2023-06-14T00:08:41;101061.59;;;27.00;29.58
76973;BME280;65907;53.640;10.050;2023-06-14T00:11:08;101063.59;;;27.06;29.58
76973;BME280;65907;53.640;10.050;2023-06-14T00:13:34;101065.09;;;27.09;29.95
76973;BME280;65907;53.640;10.050;2023-06-14T00:16:02;101074.53;;;27.11;29.48
76973;BME280;65907;53.640;10.050;2023-06-14T00:18:30;101068.09;;;27.22;29.34
76973;BME280;65907;53.640;10.050;2023-06-14T00:20:55;101072.22;;;27.16;29.59
76973;BME280;65907;53.640;10.050;2023-06-14T00:23:23;101061.84;;;27.23;29.27
76973;BME280;65907;53.640;10.050;2023-06-14T00:25:48;101062.78;;;27.14;29.83
76973;BME280;65907;53.640;10.050;2023-06-14T00:28:13;101062.13;;;27.03;29.60
76973;BME280;65907;53.640;10.050;2023-06-14T00:30:39;101071.69;;;27.13;29.49
76973;BME280;65907;53.640;10.050;2023-06-14T00:33:04;101069.06;;;27.04;29.60
76973;BME280;65907;53.640;10.050;2023-06-14T00:35:32;101070.38;;;27.17;29.37
76973;BME280;65907;53.640;10.050;2023-06-14T00:37:57;101069.59;;;27.25;29.23
76973;BME280;65907;53.640;10.050;2023-06-14T00:40:22;101071.41;;;27.24;29.57
76973;BME280;65907;53.640;10.050;2023-06-14T00:42:48;101068.72;;;27.08;29.60
76973;BME280;65907;53.640;10.050;2023-06-14T00:45:13;101073.53;;;27.12;29.69
76973;BME280;65907;53.640;10.050;2023-06-14T00:47:38;101075.38;;;27.28;29.39
76973;BME280;65907;53.640;10.050;2023-06-14T00:50:06;101072.22;;;27.25;29.46
76973;BME280;65907;53.640;10.050;2023-06-14T00:52:34;101070.69;;;27.05;29.94
76973;BME280;65907;53.640;10.050;2023-06-14T00:55:00;101074.84;;;27.16;29.63
76973;BME280;65907;53.640;10.050;2023-06-14T00:57:26;101081.59;;;27.19;29.42
76973;BME280;65907;53.640;10.050;2023-06-14T00:59:51;101071.91;;;27.28;29.26
76973;BME280;65907;53.640;10.050;2023-06-14T01:02:19;101073.69;;;27.19;29.44
76973;BME280;65907;53.640;10.050;2023-06-14T01:04:47;101077.16;;;27.28;29.06
76973;BME280;65907;53.640;10.050;2023-06-14T01:15:16;101083.59;;;27.17;29.13
76973;BME280;65907;53.640;10.050;2023-06-14T01:17:42;101082.59;;;27.10;29.67
76973;BME280;65907;53.640;10.050;2023-06-14T01:20:14;101086.41;;;27.15;29.21
76973;BME280;65907;53.640;10.050;2023-06-14T01:22:52;101074.84;;;27.16;29.23
76973;BME280;65907;53.640;10.050;2023-06-14T01:25:18;101081.13;;;27.15;28.96
76973;BME280;65907;53.640;10.050;2023-06-14T01:27:46;101078.44;;;27.07;29.34
76973;BME280;65907;53.640;10.050;2023-06-14T01:30:11;101079.63;;;27.13;29.31
76973;BME280;65907;53.640;10.050;2023-06-14T01:32:39;101086.88;;;27.11;29.32
76973;BME280;65907;53.640;10.050;2023-06-14T01:35:05;101088.84;;;27.09;29.17
76973;BME280;65907;53.640;10.050;2023-06-14T01:37:30;101090.47;;;27.01;29.58
76973;BME280;65907;53.640;10.050;2023-06-14T01:39:56;101079.28;;;27.16;29.17
76973;BME280;65907;53.640;10.050;2023-06-14T01:42:24;101083.84;;;26.97;29.55
76973;BME280;65907;53.640;10.050;2023-06-14T01:44:50;101077.63;;;27.15;29.14
76973;BME280;65907;53.640;10.050;2023-06-14T01:47:16;101082.59;;;27.18;29.14
76973;BME280;65907;53.640;10.050;2023-06-14T01:49:41;101083.56;;;27.00;29.47
76973;BME280;65907;53.640;10.050;2023-06-14T01:52:09;101090.97;;;27.05;29.34
76973;BME280;65907;53.640;10.050;2023-06-14T01:54:34;101079.16;;;27.17;29.28
76973;BME280;65907;53.640;10.050;2023-06-14T01:57:04;101083.41;;;27.10;29.43
76973;BME280;65907;53.640;10.050;2023-06-14T01:59:31;101086.88;;;27.11;29.56
76973;BME280;65907;53.640;10.050;2023-06-14T02:02:00;101084.56;;;27.08;29.75
76973;BME280;65907;53.640;10.050;2023-06-14T02:04:25;101091.75;;;26.97;29.96
76973;BME280;65907;53.640;10.050;2023-06-14T02:06:50;101087.34;;;27.06;29.65
76973;BME280;65907;53.640;10.050;2023-06-14T02:09:15;101091.50;;;27.09;29.62
76973;BME280;65907;53.640;10.050;2023-06-14T02:11:40;101087.53;;;27.13;29.55
76973;BME280;65907;53.640;10.050;2023-06-14T02:14:06;101086.06;;;27.18;29.79
76973;BME280;65907;53.640;10.050;2023-06-14T02:16:32;101085.03;;;27.03;29.79
76973;BME280;65907;53.640;10.050;2023-06-14T02:19:00;101089.50;;;27.02;30.02
76973;BME280;65907;53.640;10.050;2023-06-14T02:21:26;101091.28;;;27.02;30.05
76973;BME280;65907;53.640;10.050;2023-06-14T02:23:54;101089.50;;;27.11;29.75
76973;BME280;65907;53.640;10.050;2023-06-14T02:26:19;101098.75;;;27.15;29.60
76973;BME280;65907;53.640;10.050;2023-06-14T02:28:47;101096.59;;;27.10;29.67
76973;BME280;65907;53.640;10.050;2023-06-14T02:31:15;101103.31;;;26.96;30.21
76973;BME280;65907;53.640;10.050;2023-06-14T02:33:41;101101.19;;;27.00;30.12
76973;BME280;65907;53.640;10.050;2023-06-14T02:36:10;101106.16;;;27.03;30.06
76973;BME280;65907;53.640;10.050;2023-06-14T02:38:35;101107.78;;;26.96;30.35
76973;BME280;65907;53.640;10.050;2023-06-14T02:41:00;101115.19;;;26.92;30.43
76973;BME280;65907;53.640;10.050;2023-06-14T02:43:29;101107.44;;;26.90;30.32
76973;BME280;65907;53.640;10.050;2023-06-14T02:45:54;101108.56;;;26.88;30.63
76973;BME280;65907;53.640;10.050;2023-06-14T02:48:20;101104.78;;;26.90;30.40
76973;BME280;65907;53.640;10.050;2023-06-14T02:50:47;101105.59;;;26.91;30.51
76973;BME280;65907;53.640;10.050;2023-06-14T02:53:15;101118.75;;;26.83;30.62
76973;BME280;65907;53.640;10.050;2023-06-14T02:55:40;101116.38;;;27.06;30.33
76973;BME280;65907;53.640;10.050;2023-06-14T02:58:05;101114.38;;;27.00;30.42
76973;BME280;65907;53.640;10.050;2023-06-14T03:00:33;101118.69;;;27.09;30.45
76973;BME280;65907;53.640;10.050;2023-06-14T03:03:00;101131.22;;;27.07;30.35
76973;BME280;65907;53.640;10.050;2023-06-14T03:05:29;101123.59;;;26.96;30.38
76973;BME280;65907;53.640;10.050;2023-06-14T03:07:54;101126.47;;;27.11;30.19
76973;BME280;65907;53.640;10.050;2023-06-14T03:10:20;101129.81;;;26.86;30.69
76973;BME280;65907;53.640;10.050;2023-06-14T03:12:47;101137.91;;;26.85;30.80
76973;BME280;65907;53.640;10.050;2023-06-14T03:15:14;101136.53;;;26.81;30.86
76973;BME280;65907;53.640;10.050;2023-06-14T03:17:42;101134.38;;;27.02;30.66
76973;BME280;65907;53.640;10.050;2023-06-14T03:20:10;101135.97;;;26.95;30.81
76973;BME280;65907;53.640;10.050;2023-06-14T03:22:35;101138.00;;;27.01;30.69
76973;BME280;65907;53.640;10.050;2023-06-14T03:25:01;101142.59;;;26.99;30.79
76973;BME280;65907;53.640;10.050;2023-06-14T03:27:29;101145.59;;;27.04;30.71
76973;BME280;65907;53.640;10.050;2023-06-14T03:29:56;101143.28;;;27.10;30.59
76973;BME280;65907;53.640;10.050;2023-06-14T03:32:22;101144.72;;;26.96;30.75
76973;BME280;65907;53.640;10.050;2023-06-14T03:34:47;101151.31;;;26.91;30.76
76973;BME280;65907;53.640;10.050;2023-06-14T03:37:12;101141.56;;;26.92;30.76
76973;BME280;65907;53.640;10.050;2023-06-14T03:39:38;101156.47;;;27.01;30.69
76973;BME280;65907;53.640;10.050;2023-06-14T03:42:05;101145.91;;;27.01;30.85
76973;BME280;65907;53.640;10.050;2023-06-14T03:44:31;101156.34;;;27.11;30.70
76973;BME280;65907;53.640;10.050;2023-06-14T03:46:56;101148.53;;;27.01;30.81
76973;BME280;65907;53.640;10.050;2023-06-14T03:49:22;101153.97;;;27.00;30.58
76973;BME280;65907;53.640;10.050;2023-06-14T03:51:50;101156.94;;;26.97;30.91
76973;BME280;65907;53.640;10.050;2023-06-14T03:54:18;101157.81;;;27.14;30.79
76973;BME280;65907;53.640;10.050;2023-06-14T03:56:43;101160.94;;;27.09;30.78
76973;BME280;65907;53.640;10.050;2023-06-14T03:59:08;101159.44;;;27.07;30.67
76973;BME280;65907;53.640;10.050;2023-06-14T04:01:33;101161.09;;;27.08;30.68
76973;BME280;65907;53.640;10.050;2023-06-14T04:04:04;101158.47;;;27.08;31.00
76973;BME280;65907;53.640;10.050;2023-06-14T04:06:32;101173.13;;;27.10;30.72
76973;BME280;65907;53.640;10.050;2023-06-14T04:09:00;101172.44;;;27.00;31.12
76973;BME280;65907;53.640;10.050;2023-06-14T04:11:30;101174.72;;;27.38;30.31
76973;BME280;65907;53.640;10.050;2023-06-14T04:13:58;101173.56;;;28.00;29.33
76973;BME280;65907;53.640;10.050;2023-06-14T04:16:23;101177.53;;;28.29;28.70
76973;BME280;65907;53.640;10.050;2023-06-14T04:18:51;101185.09;;;27.90;29.33
76973;BME280;65907;53.640;10.050;2023-06-14T04:21:19;101185.44;;;28.04;28.93
76973;BME280;65907;53.640;10.050;2023-06-14T04:23:47;101193.72;;;28.09;28.55
76973;BME280;65907;53.640;10.050;2023-06-14T04:26:12;101188.25;;;27.94;28.83
76973;BME280;65907;53.640;10.050;2023-06-14T04:28:41;101179.44;;;27.52;29.71
76973;BME280;65907;53.640;10.050;2023-06-14T04:31:07;101183.97;;;27.42;30.67
76973;BME280;65907;53.640;10.050;2023-06-14T04:33:33;101184.44;;;27.80;29.18
76973;BME280;65907;53.640;10.050;2023-06-14T04:36:07;101188.03;;;27.62;29.29
76973;BME280;65907;53.640;10.050;2023-06-14T04:38:33;101184.94;;;27.84;28.67
76973;BME280;65907;53.640;10.050;2023-06-14T04:41:02;101198.66;;;28.12;28.54
76973;BME280;65907;53.640;10.050;2023-06-14T04:43:27;101199.34;;;27.98;28.94
76973;BME280;65907;53.640;10.050;2023-06-14T04:45:52;101201.09;;;27.64;29.03
76973;BME280;65907;53.640;10.050;2023-06-14T04:48:19;101210.69;;;27.30;29.65
76973;BME280;65907;53.640;10.050;2023-06-14T04:50:49;101213.16;;;27.75;29.35
76973;BME280;65907;53.640;10.050;2023-06-14T04:53:18;101210.56;;;28.74;27.33
76973;BME280;65907;53.640;10.050;2023-06-14T04:55:46;101215.81;;;29.39;26.78
76973;BME280;65907;53.640;10.050;2023-06-14T04:58:11;101206.00;;;29.80;27.31
76973;BME280;65907;53.640;10.050;2023-06-14T05:00:41;101211.53;;;30.01;25.43
76973;BME280;65907;53.640;10.050;2023-06-14T05:03:08;101214.75;;;30.35;25.23
76973;BME280;65907;53.640;10.050;2023-06-14T05:05:38;101211.97;;;30.28;25.60
76973;BME280;65907;53.640;10.050;2023-06-14T05:08:03;101213.66;;;30.44;24.82
76973;BME280;65907;53.640;10.050;2023-06-14T05:10:32;101212.81;;;30.29;24.90
76973;BME280;65907;53.640;10.050;2023-06-14T05:13:02;101220.63;;;28.87;25.76
76973;BME280;65907;53.640;10.050;2023-06-14T05:15:27;101226.28;;;25.34;29.98
76973;BME280;65907;53.640;10.050;2023-06-14T05:17:54;101226.16;;;24.78;31.13
76973;BME280;65907;53.640;10.050;2023-06-14T05:20:23;101231.53;;;25.90;30.02
76973;BME280;65907;53.640;10.050;2023-06-14T05:22:54;101225.56;;;27.40;28.12
76973;BME280;65907;53.640;10.050;2023-06-14T05:25:20;101225.72;;;27.89;27.55
76973;BME280;65907;53.640;10.050;2023-06-14T05:27:45;101223.88;;;27.57;28.24
76973;BME280;65907;53.640;10.050;2023-06-14T05:30:11;101231.53;;;27.07;28.70
76973;BME280;65907;53.640;10.050;2023-06-14T05:32:39;101229.56;;;26.83;29.13
76973;BME280;65907;53.640;10.050;2023-06-14T05:35:05;101234.41;;;26.69;29.35
76973;BME280;65907;53.640;10.050;2023-06-14T05:37:31;101235.75;;;26.73;29.59
76973;BME280;65907;53.640;10.050;2023-06-14T05:39:58;101231.94;;;26.68;29.58
76973;BME280;65907;53.640;10.050;2023-06-14T05:42:24;101234.06;;;26.28;30.03
76973;BME280;65907;53.640;10.050;2023-06-14T05:44:51;101232.28;;;26.28;30.26
76973;BME280;65907;53.640;10.050;2023-06-14T05:47:17;101237.75;;;26.17;30.40
76973;BME280;65907;53.640;10.050;2023-06-14T05:49:42;101245.03;;;26.05;30.60
76973;BME280;65907;53.640;10.050;2023-06-14T05:52:07;101243.97;;;26.16;30.91
76973;BME280;65907;53.640;10.050;2023-06-14T05:54:36;101242.97;;;26.27;30.80
76973;BME280;65907;53.640;10.050;2023-06-14T05:57:01;101243.22;;;26.05;30.78
76973;BME280;65907;53.640;10.050;2023-06-14T05:59:28;101251.81;;;26.08;30.99
76973;BME280;65907;53.640;10.050;2023-06-14T06:01:54;101249.16;;;26.17;31.12
76973;BME280;65907;53.640;10.050;2023-06-14T06:04:19;101248.50;;;26.05;31.03
76973;BME280;65907;53.640;10.050;2023-06-14T06:06:46;101251.50;;;25.92;31.08
76973;BME280;65907;53.640;10.050;2023-06-14T06:09:12;101243.72;;;26.19;30.60
76973;BME280;65907;53.640;10.050;2023-06-14T06:11:41;101245.53;;;26.18;30.59
76973;BME280;65907;53.640;10.050;2023-06-14T06:14:07;101244.84;;;26.16;30.75
76973;BME280;65907;53.640;10.050;2023-06-14T06:16:35;101248.47;;;26.33;30.28
76973;BME280;65907;53.640;10.050;2023-06-14T06:19:00;101249.75;;;26.29;30.39
76973;BME280;65907;53.640;10.050;2023-06-14T06:21:30;101251.56;;;26.47;30.22
76973;BME280;65907;53.640;10.050;2023-06-14T06:23:56;101257.34;;;26.32;30.44
76973;BME280;65907;53.640;10.050;2023-06-14T06:26:22;101252.53;;;26.28;30.59
76973;BME280;65907;53.640;10.050;2023-06-14T06:28:47;101251.78;;;26.17;30.82
76973;BME280;65907;53.640;10.050;2023-06-14T06:31:15;101256.53;;;26.04;31.44
76973;BME280;65907;53.640;10.050;2023-06-14T06:33:40;101264.81;;;25.91;31.54
76973;BME280;65907;53.640;10.050;2023-06-14T06:36:08;101259.44;;;25.65;31.96
76973;BME280;65907;53.640;10.050;2023-06-14T06:38:35;101261.81;;;25.58;31.71
76973;BME280;65907;53.640;10.050;2023-06-14T06:41:03;101269.47;;;25.51;31.83
76973;BME280;65907;53.640;10.050;2023-06-14T06:43:30;101266.31;;;25.38;32.33
76973;BME280;65907;53.640;10.050;2023-06-14T06:45:58;101269.91;;;25.37;32.63
76973;BME280;65907;53.640;10.050;2023-06-14T06:48:23;101275.41;;;25.43;32.36
76973;BME280;65907;53.640;10.050;2023-06-14T06:50:48;101276.25;;;25.44;32.39
76973;BME280;65907;53.640;10.050;2023-06-14T06:53:14;101283.06;;;25.37;32.98
76973;BME280;65907;53.640;10.050;2023-06-14T06:55:39;101289.03;;;25.39;32.61
76973;BME280;65907;53.640;10.050;2023-06-14T06:58:04;101279.06;;;25.32;32.97
76973;BME280;65907;53.640;10.050;2023-06-14T07:00:30;101283.59;;;25.40;32.40
76973;BME280;65907;53.640;10.050;2023-06-14T07:02:55;101288.78;;;25.70;32.23
76973;BME280;65907;53.640;10.050;2023-06-14T07:05:24;101286.75;;;25.63;32.31
76973;BME280;65907;53.640;10.050;2023-06-14T07:07:49;101284.84;;;25.56;32.43
76973;BME280;65907;53.640;10.050;2023-06-14T07:10:15;101274.34;;;25.74;32.29
76973;BME280;65907;53.640;10.050;2023-06-14T07:12:40;101289.22;;;25.65;32.43
76973;BME280;65907;53.640;10.050;2023-06-14T07:15:09;101282.63;;;25.51;32.74
76973;BME280;65907;53.640;10.050;2023-06-14T07:17:36;101288.75;;;25.52;32.71
76973;BME280;65907;53.640;10.050;2023-06-14T07:20:04;101290.69;;;25.40;32.60
76973;BME280;65907;53.640;10.050;2023-06-14T07:22:41;101289.84;;;25.49;32.43
76973;BME280;65907;53.640;10.050;2023-06-14T07:25:09;101298.34;;;25.71;32.19
76973;BME280;65907;53.640;10.050;2023-06-14T07:27:40;101301.66;;;25.73;32.33
76973;BME280;65907;53.640;10.050;2023-06-14T07:30:06;101297.63;;;25.51;32.00
76973;BME280;65907;53.640;10.050;2023-06-14T07:32:33;101297.78;;;25.67;32.45
76973;BME280;65907;53.640;10.050;2023-06-14T07:35:01;101294.94;;;25.60;32.31
76973;BME280;65907;53.640;10.050;2023-06-14T07:37:28;101294.22;;;25.58;31.89
76973;BME280;65907;53.640;10.050;2023-06-14T07:39:53;101292.19;;;25.52;32.51
76973;BME280;65907;53.640;10.050;2023-06-14T07:42:19;101295.84;;;25.69;32.31
76973;BME280;65907;53.640;10.050;2023-06-14T07:44:44;101302.91;;;25.97;31.25
76973;BME280;65907;53.640;10.050;2023-06-14T07:47:10;101296.84;;;25.96;31.83
76973;BME280;65907;53.640;10.050;2023-06-14T07:49:35;101289.97;;;25.85;31.57
76973;BME280;65907;53.640;10.050;2023-06-14T07:52:00;101292.00;;;25.63;32.43
76973;BME280;65907;53.640;10.050;2023-06-14T07:54:28;101286.63;;;25.83;31.95
76973;BME280;65907;53.640;10.050;2023-06-14T07:56:54;101286.31;;;25.96;31.59
76973;BME280;65907;53.640;10.050;2023-06-14T07:59:21;101285.75;;;25.92;31.67
76973;BME280;65907;53.640;10.050;2023-06-14T08:01:46;101288.50;;;25.73;31.93
76973;BME280;65907;53.640;10.050;2023-06-14T08:04:16;101285.97;;;26.27;31.39
76973;BME280;65907;53.640;10.050;2023-06-14T08:06:41;101296.59;;;26.17;31.17
76973;BME280;65907;53.640;10.050;2023-06-14T08:09:09;101290.47;;;26.17;31.19
76973;BME280;65907;53.640;10.050;2023-06-14T08:11:34;101292.84;;;26.20;31.11
76973;BME280;65907;53.640;10.050;2023-06-14T08:14:00;101296.13;;;25.94;31.17
76973;BME280;65907;53.640;10.050;2023-06-14T08:16:27;101292.81;;;25.92;31.60
76973;BME280;65907;53.640;10.050;2023-06-14T08:18:52;101290.06;;;25.94;31.47
76973;BME280;65907;53.640;10.050;2023-06-14T08:21:20;101295.41;;;25.74;31.53
76973;BME280;65907;53.640;10.050;2023-06-14T08:23:48;101288.00;;;25.87;31.68
76973;BME280;65907;53.640;10.050;2023-06-14T08:26:16;101291.66;;;26.04;31.40
76973;BME280;65907;53.640;10.050;2023-06-14T08:28:41;101302.50;;;26.01;31.23
76973;BME280;65907;53.640;10.050;2023-06-14T08:31:06;101301.13;;;25.97;31.46
76973;BME280;65907;53.640;10.050;2023-06-14T08:33:36;101305.63;;;26.05;31.32
76973;BME280;65907;53.640;10.050;2023-06-14T08:36:01;101301.13;;;25.97;31.31
76973;BME280;65907;53.640;10.050;2023-06-14T08:38:29;101302.44;;;25.83;30.90
76973;BME280;65907;53.640;10.050;2023-06-14T08:40:56;101302.25;;;25.95;31.04
76973;BME280;65907;53.640;10.050;2023-06-14T08:43:22;101296.34;;;25.83;31.12
76973;BME280;65907;53.640;10.050;2023-06-14T08:45:50;101297.28;;;25.91;30.70
76973;BME280;65907;53.640;10.050;2023-06-14T08:48:18;101289.56;;;25.80;31.37
76973;BME280;65907;53.640;10.050;2023-06-14T08:50:48;101292.44;;;25.87;31.10
76973;BME280;65907;53.640;10.050;2023-06-14T08:53:14;101295.59;;;25.72;31.02
76973;BME280;65907;53.640;10.050;2023-06-14T08:55:44;101297.16;;;25.83;31.35
76973;BME280;65907;53.640;10.050;2023-06-14T08:58:10;101293.22;;;26.25;30.21
76973;BME280;65907;53.640;10.050;2023-06-14T09:00:39;101305.84;;;26.22;30.53
76973;BME280;65907;53.640;10.050;2023-06-14T09:03:06;101306.66;;;25.94;30.87
76973;BME280;65907;53.640;10.050;2023-06-14T09:05:43;101305.59;;;25.87;31.20
76973;BME280;65907;53.640;10.050;2023-06-14T09:08:09;101302.53;;;25.91;31.09
76973;BME280;65907;53.640;10.050;2023-06-14T09:10:35;101295.44;;;25.92;30.94
76973;BME280;65907;53.640;10.050;2023-06-14T09:13:03;101302.50;;;26.01;30.99
76973;BME280;65907;53.640;10.050;2023-06-14T09:15:32;101306.19;;;26.09;30.76
76973;BME280;65907;53.640;10.050;2023-06-14T09:18:05;101310.56;;;26.18;30.50
76973;BME280;65907;53.640;10.050;2023-06-14T09:20:33;101303.22;;;25.94;31.00
76973;BME280;65907;53.640;10.050;2023-06-14T09:23:00;101309.84;;;25.98;30.80
76973;BME280;65907;53.640;10.050;2023-06-14T09:25:25;101299.91;;;26.19;30.33
76973;BME280;65907;53.640;10.050;2023-06-14T09:27:52;101310.00;;;26.24;30.38
76973;BME280;65907;53.640;10.050;2023-06-14T09:30:19;101309.25;;;26.50;30.18
76973;BME280;65907;53.640;10.050;2023-06-14T09:32:47;101307.81;;;26.38;30.21
76973;BME280;65907;53.640;10.050;2023-06-14T09:35:12;101297.63;;;26.25;30.59
76973;BME280;65907;53.640;10.050;2023-06-14T09:37:42;101311.66;;;26.25;30.07
76973;BME280;65907;53.640;10.050;2023-06-14T09:40:07;101312.88;;;26.49;30.13
76973;BME280;65907;53.640;10.050;2023-06-14T09:42:33;101312.41;;;26.36;30.16
76973;BME280;65907;53.640;10.050;2023-06-14T09:45:03;101316.84;;;26.17;30.34
76973;BME280;65907;53.640;10.050;2023-06-14T09:47:31;101309.19;;;26.14;30.61
76973;BME280;65907;53.640;10.050;2023-06-14T09:49:57;101310.03;;;26.14;30.36
76973;BME280;65907;53.640;10.050;2023-06-14T09:52:25;101302.94;;;26.15;30.66
76973;BME280;65907;53.640;10.050;2023-06-14T09:54:54;101299.09;;;26.37;30.12
76973;BME280;65907;53.640;10.050;2023-06-14T09:57:24;101306.25;;;26.45;30.20
76973;BME280;65907;53.640;10.050;2023-06-14T09:59:56;101290.59;;;26.15;30.34
76973;BME280;65907;53.640;10.050;2023-06-14T10:02:25;101299.66;;;25.85;30.93
76973;BME280;65907;53.640;10.050;2023-06-14T10:04:58;101288.91;;;26.24;29.61
76973;BME280;65907;53.640;10.050;2023-06-14T10:07:28;101295.31;;;26.22;30.37
76973;BME280;65907;53.640;10.050;2023-06-14T10:09:55;101290.13;;;26.30;30.31
76973;BME280;65907;53.640;10.050;2023-06-14T10:12:23;101292.88;;;26.10;30.39
76973;BME280;65907;53.640;10.050;2023-06-14T10:14:49;101291.38;;;26.26;30.00
76973;BME280;65907;53.640;10.050;2023-06-14T10:17:18;101285.59;;;26.58;29.53
76973;BME280;65907;53.640;10.050;2023-06-14T10:19:48;101290.81;;;26.32;29.96
76973;BME280;65907;53.640;10.050;2023-06-14T10:22:21;101280.25;;;26.50;29.79
76973;BME280;65907;53.640;10.050;2023-06-14T10:24:50;101278.44;;;26.51;29.83
76973;BME280;65907;53.640;10.050;2023-06-14T10:27:15;101278.66;;;26.39;29.92
76973;BME280;65907;53.640;10.050;2023-06-14T10:32:25;101271.97;;;26.45;29.83
76973;BME280;65907;53.640;10.050;2023-06-14T10:35:00;101262.59;;;26.51;29.90
76973;BME280;65907;53.640;10.050;2023-06-14T10:37:26;101275.41;;;26.63;29.70
76973;BME280;65907;53.640;10.050;2023-06-14T10:39:51;101281.91;;;26.87;29.32
76973;BME280;65907;53.640;10.050;2023-06-14T10:42:20;101281.78;;;26.97;28.81
76973;BME280;65907;53.640;10.050;2023-06-14T10:52:28;101268.13;;;26.39;30.02
76973;BME280;65907;53.640;10.050;2023-06-14T10:55:13;101272.09;;;26.61;29.52
76973;BME280;65907;53.640;10.050;2023-06-14T11:00:16;101272.97;;;26.44;29.95
76973;BME280;65907;53.640;10.050;2023-06-14T11:05:29;101262.06;;;26.65;29.72
76973;BME280;65907;53.640;10.050;2023-06-14T11:07:58;101270.59;;;26.59;29.79
76973;BME280;65907;53.640;10.050;2023-06-14T11:10:40;101271.50;;;26.31;30.45
76973;BME280;65907;53.640;10.050;2023-06-14T11:13:10;101278.91;;;26.00;30.35
76973;BME280;65907;53.640;10.050;2023-06-14T11:15:36;101280.38;;;26.48;29.89
76973;BME280;65907;53.640;10.050;2023-06-14T11:18:05;101268.56;;;26.71;29.28
76973;BME280;65907;53.640;10.050;2023-06-14T11:20:31;101256.56;;;26.76;29.35
76973;BME280;65907;53.640;10.050;2023-06-14T11:22:59;101265.25;;;26.51;29.95
76973;BME280;65907;53.640;10.050;2023-06-14T11:25:36;101265.13;;;26.34;30.38
76973;BME280;65907;53.640;10.050;2023-06-14T11:28:05;101254.53;;;26.16;30.32
76973;BME280;65907;53.640;10.050;2023-06-14T11:30:32;101249.75;;;26.29;30.28
76973;BME280;65907;53.640;10.050;2023-06-14T11:33:00;101262.59;;;26.14;30.61
76973;BME280;65907;53.640;10.050;2023-06-14T11:35:25;101252.97;;;26.41;29.70
76973;BME280;65907;53.640;10.050;2023-06-14T11:37:53;101250.94;;;26.53;29.71
76973;BME280;65907;53.640;10.050;2023-06-14T11:40:20;101254.16;;;26.65;29.72
76973;BME280;65907;53.640;10.050;2023-06-14T11:42:48;101244.91;;;26.61;29.80
76973;BME280;65907;53.640;10.050;2023-06-14T11:45:13;101253.81;;;26.86;29.65
76973;BME280;65907;53.640;10.050;2023-06-14T11:47:39;101249.44;;;26.95;29.41
76973;BME280;65907;53.640;10.050;2023-06-14T11:50:09;101246.31;;;26.91;29.49
76973;BME280;65907;53.640;10.050;2023-06-14T11:52:36;101245.03;;;27.04;29.30
76973;BME280;65907;53.640;10.050;2023-06-14T11:55:01;101244.53;;;26.82;29.45
76973;BME280;65907;53.640;10.050;2023-06-14T11:57:30;101247.38;;;26.62;29.74
76973;BME280;65907;53.640;10.050;2023-06-14T11:59:57;101240.34;;;26.71;29.75
76973;BME280;65907;53.640;10.050;2023-06-14T12:02:25;101247.63;;;26.51;29.57
76973;BME280;65907;53.640;10.050;2023-06-14T12:04:56;101242.63;;;26.66;29.39
76973;BME280;65907;53.640;10.050;2023-06-14T12:07:29;101233.00;;;26.57;29.67
76973;BME280;65907;53.640;10.050;2023-06-14T12:12:24;101224.88;;;26.50;29.91
76973;BME280;65907;53.640;10.050;2023-06-14T12:14:55;101218.75;;;26.49;29.60
76973;BME280;65907;53.640;10.050;2023-06-14T12:17:23;101220.91;;;26.90;29.26
76973;BME280;65907;53.640;10.050;2023-06-14T12:19:52;101234.75;;;26.74;29.35
76973;BME280;65907;53.640;10.050;2023-06-14T12:22:18;101226.69;;;26.76;29.47
76973;BME280;65907;53.640;10.050;2023-06-14T12:24:43;101219.25;;;26.89;29.56
76973;BME280;65907;53.640;10.050;2023-06-14T12:27:12;101217.88;;;26.85;29.79
76973;BME280;65907;53.640;10.050;2023-06-14T12:29:40;101222.59;;;27.00;29.08
76973;BME280;65907;53.640;10.050;2023-06-14T12:32:08;101223.44;;;26.82;29.61
76973;BME280;65907;53.640;10.050;2023-06-14T12:34:34;101228.63;;;26.66;29.88
76973;BME280;65907;53.640;10.050;2023-06-14T12:36:59;101219.25;;;26.89;29.32
76973;BME280;65907;53.640;10.050;2023-06-14T12:39:24;101217.72;;;26.87;29.66
76973;BME280;65907;53.640;10.050;2023-06-14T12:41:52;101223.56;;;26.99;29.31
76973;BME280;65907;53.640;10.050;2023-06-14T12:44:17;101225.00;;;26.93;29.58
76973;BME280;65907;53.640;10.050;2023-06-14T12:46:42;101231.25;;;26.66;29.86
76973;BME280;65907;53.640;10.050;2023-06-14T12:49:11;101230.25;;;26.85;29.30
76973;BME280;65907;53.640;10.050;2023-06-14T12:51:39;101225.13;;;26.65;29.75
76973;BME280;65907;53.640;10.050;2023-06-14T12:54:07;101227.09;;;26.63;29.70
76973;BME280;65907;53.640;10.050;2023-06-14T12:56:33;101222.59;;;26.55;29.76
76973;BME280;65907;53.640;10.050;2023-06-14T12:59:03;101225.13;;;26.65;29.68
76973;BME280;65907;53.640;10.050;2023-06-14T13:01:31;101210.63;;;26.61;29.95
76973;BME280;65907;53.640;10.050;2023-06-14T13:03:56;101202.47;;;26.54;29.76
76973;BME280;65907;53.640;10.050;2023-06-14T13:06:21;101201.31;;;26.75;29.63